Bookmark and Share
Track history (hours):
 

Kamikawa Maru

Last reported at 2014-Apr-22 18:12 UTC. Time now 2014-Apr-25 06:21 UTC.
Position N 35°52' E 141°01'.

Length 162 m; draft 6.8 m.

Type: Cargo ship. MMSI: 431101012.

NotesDate/timePositionNaut miles runAvg speedWind from/ knotsBaromVisibWave heightAir tempDewpointWater temp
2014-Apr-22 18:12N 35°52' E 141°01'1218.4
2014-Apr-22 17:33N 35°41' E 140°58'1919.2
2014-Apr-22 16:33N 35°24' E 140°46'2019.6
2014-Apr-22 15:32N 35°08' E 140°33'1919.6
2014-Apr-22 14:33N 34°58' E 140°12'1918.9
2014-Apr-22 13:33N 34°51' E 139°51'1716.6
2014-Apr-22 12:33N 35°07' E 139°44'1312.8
2014-Apr-22 11:33N 35°19' E 139°43'1515.1
2014-Apr-22 10:33N 35°33' E 139°50'6 5.1
2014-Apr-22 09:27N 35°38' E 139°46'0 0.1
2014-Apr-22 08:33N 35°38' E 139°46'0 0.0
2014-Apr-22 07:03N 35°38' E 139°46'0 0.1
2014-Apr-22 06:21N 35°38' E 139°46'0 0.1
2014-Apr-22 05:33N 35°38' E 139°46'0 0.0
2014-Apr-22 04:33N 35°38' E 139°46'0 0.0
2014-Apr-22 03:33N 35°38' E 139°46'0 0.0
2014-Apr-22 02:33N 35°38' E 139°46'0 0.0
2014-Apr-22 01:33N 35°38' E 139°46'0 0.0
2014-Apr-22 00:33N 35°38' E 139°46'0 0.0
2014-Apr-21 23:33N 35°38' E 139°46'1110.8
2014-Apr-21 22:34N 35°28' E 139°51'1212.1
2014-Apr-21 21:33N 35°16' E 139°46'1514.8
2014-Apr-21 20:34N 35°02' E 139°41'1918.3
2014-Apr-21 19:32N 34°51' E 139°23'4 0.1
2014-Apr-20 09:29N 34°51' E 139°18'1819.6
2014-Apr-20 08:33N 35°02' E 139°36'1616.2
2014-Apr-20 07:33N 35°16' E 139°46'1212.4
2014-Apr-20 06:33N 35°28' E 139°48'1010.3
2014-Apr-20 05:33N 35°38' E 139°46'0 0.0
2014-Apr-20 04:08N 35°38' E 139°46'0 0.1
2014-Apr-20 03:29N 35°38' E 139°46'0 0.0
2014-Apr-20 02:11N 35°38' E 139°46'0 0.1
2014-Apr-20 01:29N 35°38' E 139°46'0 0.0
2014-Apr-20 00:29N 35°38' E 139°46'0 0.1
2014-Apr-19 23:33N 35°38' E 139°46'1212.0
2014-Apr-19 22:34N 35°26' E 139°48'1211.5
2014-Apr-19 21:33N 35°15' E 139°47'1313.5
2014-Apr-19 20:33N 35°02' E 139°44'1513.8
2014-Apr-19 19:29N 34°51' E 139°56'1617.3
2014-Apr-19 18:33N 34°55' E 140°15'2017.1
2014-Apr-19 17:24N 35°06' E 140°35'2117.4
2014-Apr-19 16:14N 35°23' E 140°49'  
2014-Apr-15 19:25N 36°24' E 141°05'1719.3
2014-Apr-15 18:33N 36°08' E 141°03'1919.2
2014-Apr-15 17:33N 35°49' E 141°00'4219.9
2014-Apr-15 15:27N 35°11' E 140°38'3512.2
2014-Apr-15 12:33N 34°50' E 140°03'1717.3
2014-Apr-15 11:34N 34°55' E 139°43'1817.7
2014-Apr-15 10:34N 35°13' E 139°46'1212.4
2014-Apr-15 09:34N 35°25' E 139°44'1312.7
2014-Apr-15 08:34N 35°38' E 139°46'0 0.3
2014-Apr-15 07:32N 35°38' E 139°46'0 0.0
2014-Apr-15 05:32N 35°38' E 139°46'0 0.0
2014-Apr-15 03:32N 35°38' E 139°46'0 0.0
2014-Apr-15 02:32N 35°38' E 139°46'0 0.0
2014-Apr-15 01:32N 35°38' E 139°46'0 0.0
2014-Apr-14 23:32N 35°38' E 139°46'0 0.0
2014-Apr-14 22:32N 35°38' E 139°46'3 1.6
2014-Apr-14 20:33N 35°35' E 139°47'1111.5
2014-Apr-14 19:34N 35°24' E 139°46'1110.9
2014-Apr-14 18:34N 35°13' E 139°47'1716.5
2014-Apr-14 17:34N 34°57' E 139°44'1716.5
2014-Apr-14 16:34N 34°54' E 140°04'1919.3
2014-Apr-14 15:34N 35°04' E 140°24'1918.5
2014-Apr-14 14:33N 35°19' E 140°38'1817.6
2014-Apr-14 13:32N 35°34' E 140°51'  

Dump ship's entire track history

sailing weather and tide predictions

Kamikawa Maru — JG5687 — position and weather